Terminal Aerodrome Forecast
Issued by NWS

Home | Current Version | Previous Version | Text Only | Print | Product List | Glossary On
Versions: 1 2 3 4 5 6 7 8 9 10 11 12 13 14 15 16
690
FTUS41 KGYX 180520
TAFPSM
TAF
KPSM 180520Z 1806/1906 33002KT P6SM BKN200
     FM181400 VRB03KT 4SM -SN BR OVC020
     FM181800 VRB03KT 2SM -SN BR OVC004
     FM190000 22004KT 1 1/2SM BR OVC015
      TEMPO 1900/1903 4SM -FZRA OVC015=

USA.gov is the U.S. government's official web portal to all federal, state and local government web resources and services.